Terminal Aerodrome Forecast
Issued by NWS

Home | Current Version | Previous Version | Text Only | Print | Product List | Glossary On
Versions: 1 2 3 4 5 6 7 8 9 10 11 12 13 14 15 16 17
111
FTUS43 KJKL 151120
TAFSME
TAF
KSME 151120Z 1512/1612 VRB03KT P6SM OVC006
     FM151700 00000KT P6SM OVC015
     FM152100 VRB03KT P6SM VCSH OVC015
     FM160300 06003KT 3SM -SHRA OVC008=

USA.gov is the U.S. government's official web portal to all federal, state and local government web resources and services.